createdAt,value
2022-11-29T00:01:41.218Z,99897.69
2022-11-29T00:04:08.578Z,99907.06
2022-11-29T00:06:36.057Z,99911.50
2022-11-29T00:09:07.096Z,99915.41
2022-11-29T00:11:56.254Z,99916.44
2022-11-29T00:14:24.521Z,99913.63
2022-11-29T00:16:54.591Z,99919.81
2022-11-29T00:19:21.938Z,99915.97
2022-11-29T00:21:49.093Z,99918.69
2022-11-29T00:24:16.615Z,99915.22
2022-11-29T00:26:43.780Z,99909.03
2022-11-29T00:29:13.095Z,99908.44
2022-11-29T00:31:41.988Z,99909.84
2022-11-29T00:34:11.151Z,99894.53
2022-11-29T00:36:38.538Z,99924.00
2022-11-29T00:39:06.702Z,99916.94
2022-11-29T00:41:34.024Z,99914.22
2022-11-29T00:44:01.252Z,99902.19
2022-11-29T00:46:28.413Z,99895.59
2022-11-29T00:48:55.465Z,99907.56
2022-11-29T00:51:22.539Z,99909.78
2022-11-29T00:53:49.631Z,99905.41
2022-11-29T00:56:23.861Z,99899.66
2022-11-29T00:58:50.918Z,99866.91
2022-11-29T01:01:18.557Z,99856.69
2022-11-29T01:03:45.670Z,99876.44
2022-11-29T01:06:15.834Z,99881.88
2022-11-29T01:08:42.957Z,99873.91
2022-11-29T01:11:22.303Z,99866.41
2022-11-29T01:13:51.211Z,99860.97
2022-11-29T01:16:18.619Z,99869.13
2022-11-29T01:18:45.744Z,99867.22
2022-11-29T01:21:18.368Z,99872.66
2022-11-29T01:23:47.035Z,99863.94
2022-11-29T01:26:21.027Z,99868.38
2022-11-29T01:28:51.198Z,99866.88
2022-11-29T01:31:39.880Z,99880.63
2022-11-29T01:34:08.049Z,99873.88
2022-11-29T01:36:35.450Z,99868.94
2022-11-29T01:39:06.003Z,99864.81
2022-11-29T01:41:36.670Z,99854.78
2022-11-29T01:44:12.872Z,99866.44
2022-11-29T01:46:43.022Z,99848.09
2022-11-29T01:49:15.611Z,99831.84
2022-11-29T01:51:48.221Z,99852.31
2022-11-29T01:54:15.246Z,99851.13
2022-11-29T01:56:45.274Z,99861.09
2022-11-29T01:59:15.996Z,99863.50
2022-11-29T02:01:43.114Z,99865.06
2022-11-29T02:04:13.582Z,99855.78
2022-11-29T02:06:42.672Z,99867.22
2022-11-29T02:09:22.031Z,99869.38
2022-11-29T02:12:02.856Z,99862.28
2022-11-29T02:14:46.331Z,99863.50
2022-11-29T02:17:55.535Z,99838.66
2022-11-29T02:20:28.639Z,99857.16
2022-11-29T02:23:20.371Z,99856.66
2022-11-29T02:26:22.617Z,99850.09
2022-11-29T02:29:31.538Z,99837.25
2022-11-29T02:32:15.009Z,99844.34
2022-11-29T02:35:05.463Z,99831.31
2022-11-29T02:37:47.289Z,99852.31
2022-11-29T02:40:28.727Z,99825.94
2022-11-29T02:43:23.914Z,99870.19
2022-11-29T02:46:41.596Z,99890.03
2022-11-29T02:49:14.855Z,99882.88
2022-11-29T02:52:02.703Z,99865.00
2022-11-29T02:54:45.630Z,99860.63
2022-11-29T02:57:39.144Z,99865.06
2022-11-29T03:00:10.582Z,99864.06
2022-11-29T03:03:00.530Z,99862.25
2022-11-29T03:06:03.434Z,99864.06
2022-11-29T03:08:40.705Z,99859.00
2022-11-29T03:11:39.909Z,99871.91
2022-11-29T03:14:17.497Z,99864.81
2022-11-29T03:17:13.859Z,99865.31
2022-11-29T03:20:04.112Z,99877.03
2022-11-29T03:23:08.368Z,99877.09
2022-11-29T03:26:10.865Z,99886.97
2022-11-29T03:28:41.652Z,99880.78
2022-11-29T03:31:23.695Z,99879.38
2022-11-29T03:33:56.652Z,99885.88
2022-11-29T03:37:04.729Z,99890.25
2022-11-29T03:39:51.594Z,99881.78
2022-11-29T03:42:38.110Z,99889.09
2022-11-29T03:45:18.822Z,99879.88
2022-11-29T03:47:51.699Z,99879.22
2022-11-29T03:50:25.520Z,99877.25
2022-11-29T03:53:20.829Z,99876.53
2022-11-29T03:55:57.005Z,99865.00
2022-11-29T03:58:39.526Z,99859.00
2022-11-29T04:01:21.549Z,99866.56
2022-11-29T04:03:51.370Z,99867.06
2022-11-29T04:06:57.637Z,99870.28
2022-11-29T04:09:55.587Z,99867.56
2022-11-29T04:12:41.265Z,99874.66
2022-11-29T04:15:17.298Z,99879.50
2022-11-29T04:18:05.536Z,99880.91
2022-11-29T04:20:50.580Z,99881.22
2022-11-29T04:23:54.864Z,99888.31
2022-11-29T04:26:43.465Z,99891.59
2022-11-29T04:29:26.586Z,99874.88
2022-11-29T04:32:08.731Z,99885.16
2022-11-29T04:35:03.114Z,99878.22
2022-11-29T04:38:05.501Z,99878.81
2022-11-29T04:41:03.048Z,99884.16
2022-11-29T04:43:51.696Z,99897.25
2022-11-29T04:46:30.715Z,99897.84
2022-11-29T04:49:26.967Z,99889.59
2022-11-29T04:52:05.884Z,99819.38
2022-11-29T04:54:57.564Z,99905.34
2022-11-29T04:57:44.703Z,99906.97
2022-11-29T05:00:18.651Z,99808.94
2022-11-29T05:03:16.622Z,99904.09
2022-11-29T05:05:55.289Z,99898.91
2022-11-29T05:08:27.813Z,99899.22
2022-11-29T05:11:27.061Z,99906.38
2022-11-29T05:14:15.969Z,99903.38
2022-11-29T05:17:08.298Z,99902.03
2022-11-29T05:20:04.204Z,99920.31
2022-11-29T05:22:40.610Z,99921.13
2022-11-29T05:25:38.672Z,99910.13
2022-11-29T05:28:37.956Z,99901.16
2022-11-29T05:31:37.938Z,99913.66
2022-11-29T05:34:23.280Z,99918.94
2022-11-29T05:37:22.633Z,99918.34
2022-11-29T05:40:00.612Z,99927.50
2022-11-29T05:43:02.724Z,99930.28
2022-11-29T05:45:45.505Z,99922.06
2022-11-29T05:48:30.067Z,99907.25
2022-11-29T05:51:09.958Z,99935.91
2022-11-29T05:54:01.127Z,99945.44
2022-11-29T05:57:00.408Z,99942.66
2022-11-29T05:59:40.133Z,99933.44
2022-11-29T06:02:23.474Z,99943.81
2022-11-29T06:05:28.632Z,99944.94
2022-11-29T06:07:55.772Z,99944.44
2022-11-29T06:10:33.013Z,99944.94
2022-11-29T06:13:18.822Z,99930.13
2022-11-29T06:16:10.406Z,99949.97
2022-11-29T06:18:59.522Z,99955.47
2022-11-29T06:21:45.473Z,99946.44
2022-11-29T06:24:38.118Z,99951.63
2022-11-29T06:27:25.362Z,99937.13
2022-11-29T06:30:02.009Z,99952.19
2022-11-29T06:32:55.153Z,99953.19
2022-11-29T06:35:25.281Z,99953.19
2022-11-29T06:37:58.986Z,99957.06
2022-11-29T06:40:26.853Z,99956.63
2022-11-29T06:42:53.845Z,99958.84
2022-11-29T06:45:22.223Z,99952.00
2022-11-29T06:47:57.150Z,99958.28
2022-11-29T06:51:01.861Z,99962.06
2022-11-29T06:53:38.050Z,99960.41
2022-11-29T06:56:18.318Z,99966.19
2022-11-29T06:59:31.327Z,99948.50
2022-11-29T07:02:19.676Z,99956.75
2022-11-29T07:05:08.746Z,99951.88
2022-11-29T07:07:36.437Z,99939.25
2022-11-29T07:10:08.304Z,99951.94
2022-11-29T07:12:38.910Z,99947.09
2022-11-29T07:15:07.049Z,99943.31
2022-11-29T07:17:45.089Z,99928.50
2022-11-29T07:20:21.296Z,99944.44
2022-11-29T07:22:59.618Z,99941.88
2022-11-29T07:25:43.466Z,99941.03
2022-11-29T07:28:20.830Z,99936.75
2022-11-29T07:30:57.092Z,99943.00
2022-11-29T07:33:41.063Z,99940.84
2022-11-29T07:36:45.143Z,99941.69
2022-11-29T07:39:12.336Z,99946.53
2022-11-29T07:41:51.912Z,99945.16
2022-11-29T07:44:24.590Z,99957.50
2022-11-29T07:46:51.944Z,99942.56
2022-11-29T07:49:22.739Z,99947.50
2022-11-29T07:51:50.989Z,99942.69
2022-11-29T07:54:19.275Z,99942.06
2022-11-29T07:56:49.198Z,99946.00
2022-11-29T07:59:19.313Z,99938.00
2022-11-29T08:01:46.942Z,99941.63
2022-11-29T08:04:14.825Z,99936.00
2022-11-29T08:06:45.687Z,99931.25
2022-11-29T08:09:13.042Z,99955.84
2022-11-29T08:11:40.838Z,99954.22
2022-11-29T08:14:08.046Z,99950.97
2022-11-29T08:16:36.034Z,99952.69
2022-11-29T08:19:04.102Z,99955.97
2022-11-29T08:21:34.558Z,99949.66
2022-11-29T08:24:01.955Z,99942.56
2022-11-29T08:26:31.917Z,99940.16
2022-11-29T08:29:02.786Z,99930.03
2022-11-29T08:31:30.091Z,99939.09
2022-11-29T08:33:57.973Z,99927.50
2022-11-29T08:36:24.974Z,99932.44
2022-11-29T08:38:59.273Z,99943.38
2022-11-29T08:41:30.846Z,99937.53
2022-11-29T08:43:58.601Z,99940.50
2022-11-29T08:46:45.698Z,99942.16
2022-11-29T08:49:13.635Z,99939.69
2022-11-29T08:51:41.038Z,99936.97
2022-11-29T08:54:08.247Z,99932.59
2022-11-29T08:59:24.214Z,99927.69
2022-11-29T09:01:51.531Z,99940.47
2022-11-29T09:04:19.512Z,99936.38
2022-11-29T09:06:49.636Z,99936.69
2022-11-29T09:09:17.706Z,99941.13
2022-11-29T09:11:49.189Z,99950.13
2022-11-29T09:14:18.165Z,99945.19
2022-11-29T09:16:46.127Z,99938.97
2022-11-29T09:19:17.046Z,99935.44
2022-11-29T09:21:44.768Z,99926.06
2022-11-29T09:24:13.355Z,99926.63
2022-11-29T09:26:42.680Z,99918.44
2022-11-29T09:29:11.702Z,99909.50
2022-11-29T09:31:42.907Z,99922.63
2022-11-29T09:34:12.983Z,99913.66
2022-11-29T09:36:40.311Z,99907.63
2022-11-29T09:39:07.546Z,99918.31
2022-11-29T09:41:51.231Z,99908.88
2022-11-29T09:44:48.021Z,99910.00
2022-11-29T09:47:32.393Z,99904.00
2022-11-29T09:50:22.702Z,99890.28
2022-11-29T09:53:20.196Z,99887.00
2022-11-29T09:55:59.915Z,99902.63
2022-11-29T09:58:44.175Z,99895.22
2022-11-29T10:01:19.297Z,99881.59
2022-11-29T10:03:52.633Z,99896.59
2022-11-29T10:06:36.780Z,99899.59
2022-11-29T10:09:34.042Z,99893.56
2022-11-29T10:12:19.908Z,99896.25
2022-11-29T10:14:58.153Z,99895.16
2022-11-29T10:17:46.713Z,99889.66
2022-11-29T10:20:20.344Z,99864.03
2022-11-29T10:22:56.382Z,99880.72
2022-11-29T10:25:50.565Z,99874.22
2022-11-29T10:28:24.688Z,99874.72
2022-11-29T10:31:19.189Z,99875.59
2022-11-29T10:33:46.902Z,99876.72
2022-11-29T10:36:42.008Z,99876.72
2022-11-29T10:39:40.369Z,99871.91
2022-11-29T10:42:35.361Z,99858.69
2022-11-29T10:45:04.384Z,99863.63
2022-11-29T10:47:32.337Z,99852.19
2022-11-29T10:50:03.077Z,99867.22
2022-11-29T10:52:30.352Z,99864.13
2022-11-29T10:55:00.026Z,99856.03
2022-11-29T10:57:27.541Z,99863.16
2022-11-29T11:00:14.478Z,99870.47
2022-11-29T11:02:42.531Z,99858.03
2022-11-29T11:05:19.663Z,99865.41
2022-11-29T11:08:00.545Z,99854.16
2022-11-29T11:10:37.816Z,99823.78
2022-11-29T11:13:08.180Z,99854.22
2022-11-29T11:15:35.299Z,99857.47
2022-11-29T11:18:05.190Z,99850.94
2022-11-29T11:20:40.362Z,99838.91
2022-11-29T11:23:42.389Z,99842.97
2022-11-29T11:26:14.973Z,99847.44
2022-11-29T11:28:51.128Z,99848.56
2022-11-29T11:31:29.111Z,99849.63
2022-11-29T11:33:56.299Z,99837.84
2022-11-29T11:36:27.361Z,99840.94
2022-11-29T11:39:10.422Z,99851.31
2022-11-29T11:42:00.558Z,99827.34
2022-11-29T11:44:53.823Z,99826.84
2022-11-29T11:47:29.894Z,99844.53
2022-11-29T11:50:00.820Z,99846.97
2022-11-29T11:52:42.071Z,99840.34
2022-11-29T11:55:21.219Z,99848.03
2022-11-29T11:58:09.721Z,99841.25
2022-11-29T12:03:32.054Z,99849.13
2022-11-29T12:06:39.945Z,99838.69
2022-11-29T12:09:39.748Z,99839.78
2022-11-29T12:12:13.103Z,99853.44
2022-11-29T12:15:02.234Z,99840.88
2022-11-29T12:17:35.404Z,99831.34
2022-11-29T12:20:22.201Z,99840.38
2022-11-29T12:23:23.784Z,99833.22
2022-11-29T12:25:58.663Z,99843.63
2022-11-29T12:28:33.870Z,99829.97
2022-11-29T12:31:28.040Z,99839.25
2022-11-29T12:33:59.078Z,99844.19
2022-11-29T12:36:54.060Z,99842.25
2022-11-29T12:39:39.113Z,99846.34
2022-11-29T12:42:25.259Z,99850.19
2022-11-29T12:44:55.206Z,99849.06
2022-11-29T12:47:53.702Z,99856.72
2022-11-29T12:50:49.925Z,99830.56
2022-11-29T12:53:27.225Z,99843.63
2022-11-29T12:56:26.069Z,99842.81
2022-11-29T12:59:08.463Z,99845.78
2022-11-29T13:02:04.526Z,99846.09
2022-11-29T13:04:44.193Z,99837.31
2022-11-29T13:07:26.775Z,99850.94
2022-11-29T13:09:59.993Z,99845.19
2022-11-29T13:12:51.001Z,99845.78
2022-11-29T13:15:35.281Z,99847.44
2022-11-29T13:18:29.794Z,99847.75
2022-11-29T13:21:04.642Z,99832.66
2022-11-29T13:26:39.750Z,99845.75
2022-11-29T13:29:08.749Z,99842.56
2022-11-29T13:31:39.030Z,99848.81
2022-11-29T13:34:14.050Z,99831.31
2022-11-29T13:37:00.121Z,99842.25
2022-11-29T13:39:39.824Z,99848.25
2022-11-29T13:42:28.327Z,99852.94
2022-11-29T13:45:07.609Z,99846.34
2022-11-29T13:48:10.729Z,99852.84
2022-11-29T13:50:45.980Z,99845.75
2022-11-29T13:53:30.945Z,99848.97
2022-11-29T13:56:02.129Z,99858.84
2022-11-29T13:58:29.170Z,99860.19
2022-11-29T14:01:10.123Z,99858.28
2022-11-29T14:03:38.952Z,99854.72
2022-11-29T14:06:13.622Z,99860.44
2022-11-29T14:09:17.909Z,99860.44
2022-11-29T14:11:48.953Z,99864.81
2022-11-29T14:14:15.796Z,99868.34
2022-11-29T14:16:43.145Z,99870.25
2022-11-29T14:19:10.420Z,99868.81
2022-11-29T14:21:59.052Z,99869.84
2022-11-29T14:24:32.448Z,99860.84
2022-11-29T14:27:12.611Z,99870.16
2022-11-29T14:29:51.032Z,99868.50
2022-11-29T14:32:56.673Z,99864.19
2022-11-29T14:36:01.746Z,99855.41
2022-11-29T14:38:43.239Z,99864.13
2022-11-29T14:41:38.181Z,99867.69
2022-11-29T14:44:26.149Z,99869.53
2022-11-29T14:47:20.352Z,99863.56
2022-11-29T14:49:47.431Z,99861.16
2022-11-29T14:52:14.497Z,99865.28
2022-11-29T14:55:04.036Z,99864.41
2022-11-29T14:57:50.191Z,99854.03
2022-11-29T15:00:21.747Z,99856.69
2022-11-29T15:02:50.900Z,99859.97
2022-11-29T15:05:34.639Z,99860.28
2022-11-29T15:08:19.392Z,99867.63
2022-11-29T15:11:03.308Z,99868.19
2022-11-29T15:13:33.510Z,99872.63
2022-11-29T15:16:34.110Z,99864.75
2022-11-29T15:19:03.701Z,99875.09
2022-11-29T15:21:51.070Z,99875.34
2022-11-29T15:24:19.847Z,99854.94
2022-11-29T15:27:03.205Z,99854.13
2022-11-29T15:29:49.073Z,99875.66
2022-11-29T15:32:30.611Z,99874.06
2022-11-29T15:34:57.800Z,99875.13
2022-11-29T15:37:24.757Z,99872.91
2022-11-29T15:40:31.420Z,99879.97
2022-11-29T15:43:25.921Z,99881.66
2022-11-29T15:45:55.599Z,99877.25
2022-11-29T15:48:29.017Z,99883.19
2022-11-29T15:51:14.645Z,99897.00
2022-11-29T15:53:48.647Z,99892.94
2022-11-29T15:56:28.045Z,99893.78
2022-11-29T15:59:02.989Z,99884.72
2022-11-29T16:01:30.487Z,99898.19
2022-11-29T16:03:58.528Z,99898.44
2022-11-29T16:06:34.409Z,99799.41
2022-11-29T16:09:10.097Z,99883.19
2022-11-29T16:11:38.339Z,99888.13
2022-11-29T16:14:29.457Z,99882.00
2022-11-29T16:17:00.805Z,99886.31
2022-11-29T16:19:34.997Z,99894.59
2022-11-29T16:22:32.286Z,99893.78
2022-11-29T16:25:07.113Z,99902.50
2022-11-29T16:27:36.232Z,99905.22
2022-11-29T16:30:03.710Z,99898.09
2022-11-29T16:32:34.570Z,99893.47
2022-11-29T16:35:12.607Z,99916.38
2022-11-29T16:37:43.024Z,99901.19
2022-11-29T16:40:28.217Z,99883.59
2022-11-29T16:43:04.630Z,99916.06
2022-11-29T16:45:42.593Z,99912.22
2022-11-29T16:48:26.951Z,99919.03
2022-11-29T16:51:16.414Z,99922.84
2022-11-29T16:53:47.737Z,99915.00
2022-11-29T16:56:17.748Z,99916.63
2022-11-29T16:59:17.017Z,99916.94
2022-11-29T17:01:39.236Z,99920.22
2022-11-29T17:04:06.132Z,99895.94
2022-11-29T17:06:33.266Z,99899.47
2022-11-29T17:09:00.326Z,99890.66
2022-11-29T17:11:27.587Z,99921.81
2022-11-29T17:13:54.559Z,99901.56
2022-11-29T17:16:23.742Z,99919.34
2022-11-29T17:18:53.023Z,99919.91
2022-11-29T17:21:27.899Z,99921.00
2022-11-29T17:23:54.981Z,99917.91
2022-11-29T17:26:25.840Z,99919.03
2022-11-29T17:28:53.586Z,99911.69
2022-11-29T17:31:29.910Z,99900.22
2022-11-29T17:33:59.758Z,99916.56
2022-11-29T17:36:27.066Z,99922.84
2022-11-29T17:38:53.955Z,99920.63
2022-11-29T17:41:25.349Z,99917.88
2022-11-29T17:43:53.809Z,99862.22
2022-11-29T17:46:42.970Z,99921.63
2022-11-29T17:49:11.627Z,99916.63
2022-11-29T17:51:51.756Z,99917.19
2022-11-29T17:54:19.770Z,99929.41
2022-11-29T17:56:46.705Z,99931.38
2022-11-29T17:59:13.587Z,99915.19
2022-11-29T18:01:41.644Z,99938.47
2022-11-29T18:04:09.726Z,99933.53
2022-11-29T18:06:39.734Z,99944.53
2022-11-29T18:09:09.103Z,99940.47
2022-11-29T18:11:47.701Z,99945.66
2022-11-29T18:14:28.397Z,99938.09
2022-11-29T18:16:55.524Z,99933.94
2022-11-29T18:19:23.699Z,99942.97
2022-11-29T18:21:51.314Z,99943.28
2022-11-29T18:24:19.266Z,99924.75
2022-11-29T18:26:46.631Z,99931.88
2022-11-29T18:29:13.679Z,99924.53
2022-11-29T18:31:43.996Z,99924.28
2022-11-29T18:34:13.243Z,99919.03
2022-11-29T18:36:43.247Z,99918.47
2022-11-29T18:39:18.980Z,99931.06
2022-11-29T18:41:48.794Z,99919.66
2022-11-29T18:44:17.667Z,99923.22
2022-11-29T18:46:45.712Z,99932.19
2022-11-29T18:49:15.343Z,99941.44
2022-11-29T18:51:45.405Z,99934.03
2022-11-29T18:54:14.619Z,99923.91
2022-11-29T18:56:42.975Z,99938.47
2022-11-29T18:59:17.165Z,99935.50
2022-11-29T19:01:46.508Z,99932.50
2022-11-29T19:04:16.608Z,99942.06
2022-11-29T19:06:44.439Z,99949.22
2022-11-29T19:09:15.657Z,99944.28
2022-11-29T19:11:42.833Z,99951.38
2022-11-29T19:14:11.817Z,99942.06
2022-11-29T19:16:44.667Z,99939.34
2022-11-29T19:19:11.961Z,99919.22
2022-11-29T19:21:40.195Z,99916.75
2022-11-29T19:24:14.090Z,99926.59
2022-11-29T19:26:44.788Z,99936.66
2022-11-29T19:29:19.918Z,99932.50
2022-11-29T19:31:50.579Z,99932.75
2022-11-29T19:34:17.615Z,99933.84
2022-11-29T19:36:48.081Z,99929.72
2022-11-29T19:39:17.511Z,99942.84
2022-11-29T19:41:47.150Z,99940.63
2022-11-29T19:44:14.431Z,99934.34
2022-11-29T19:46:48.580Z,99935.69
2022-11-29T19:49:15.818Z,99942.56
2022-11-29T19:51:43.498Z,99931.13
2022-11-29T19:54:14.422Z,99946.69
2022-11-29T19:56:42.372Z,99940.41
2022-11-29T19:59:10.405Z,99941.56
2022-11-29T20:01:42.640Z,99939.91
2022-11-29T20:04:11.754Z,99925.41
2022-11-29T20:06:39.311Z,99935.53
2022-11-29T20:09:06.692Z,99940.41
2022-11-29T20:11:35.030Z,99928.72
2022-11-29T20:14:04.939Z,99931.44
2022-11-29T20:16:33.883Z,99932.25
2022-11-29T20:19:02.068Z,99929.78
2022-11-29T20:21:32.305Z,99927.78
2022-11-29T20:24:11.897Z,99943.09
2022-11-29T20:26:43.188Z,99933.28
2022-11-29T20:29:10.741Z,99945.03
2022-11-29T20:31:40.315Z,99943.13
2022-11-29T20:34:13.112Z,99951.81
2022-11-29T20:37:21.143Z,99950.22
2022-11-29T20:40:12.134Z,99950.16
2022-11-29T20:42:54.167Z,99953.16
2022-11-29T20:45:21.494Z,99938.09
2022-11-29T20:47:58.758Z,99947.97
2022-11-29T20:50:27.841Z,99938.16
2022-11-29T20:53:22.527Z,99957.38
2022-11-29T20:55:49.693Z,99963.34
2022-11-29T20:58:16.908Z,99947.50
2022-11-29T21:00:44.915Z,99956.03
2022-11-29T21:03:19.341Z,99940.69
2022-11-29T21:05:47.330Z,99963.97
2022-11-29T21:08:15.461Z,99953.47
2022-11-29T21:10:42.735Z,99964.88
2022-11-29T21:13:11.805Z,99958.59
2022-11-29T21:15:40.081Z,99965.69
2022-11-29T21:18:07.857Z,99966.50
2022-11-29T21:20:35.013Z,99963.53
2022-11-29T21:23:05.358Z,99972.00
2022-11-29T21:26:01.753Z,99961.69
2022-11-29T21:28:34.452Z,99963.78
2022-11-29T21:31:01.718Z,99955.63
2022-11-29T21:33:28.800Z,99952.91
2022-11-29T21:35:59.635Z,99953.97
2022-11-29T21:38:27.750Z,99956.63
2022-11-29T21:40:54.632Z,99967.53
2022-11-29T21:43:28.761Z,99965.63
2022-11-29T21:46:08.476Z,99963.72
2022-11-29T21:48:35.368Z,99962.09
2022-11-29T21:51:04.963Z,99960.38
2022-11-29T21:53:32.093Z,99970.00
2022-11-29T21:56:03.026Z,99952.75
2022-11-29T21:58:31.712Z,99954.69
2022-11-29T22:01:15.466Z,99961.50
2022-11-29T22:03:43.342Z,99953.34
2022-11-29T22:06:18.275Z,99965.38
2022-11-29T22:08:45.187Z,99957.47
2022-11-29T22:11:14.628Z,99951.81
2022-11-29T22:14:01.703Z,99961.56
2022-11-29T22:16:31.889Z,99956.84
2022-11-29T22:18:58.911Z,99952.75
2022-11-29T22:21:26.276Z,99955.41
2022-11-29T22:23:53.252Z,99959.31
2022-11-29T22:26:21.716Z,99955.75
2022-11-29T22:28:48.715Z,99954.38
2022-11-29T22:31:15.752Z,99956.50
2022-11-29T22:33:42.920Z,99959.53
2022-11-29T22:36:13.019Z,99936.50
2022-11-29T22:38:40.705Z,99931.38
2022-11-29T22:41:13.460Z,99933.59
2022-11-29T22:43:41.363Z,99937.69
2022-11-29T22:46:15.637Z,99939.41
2022-11-29T22:48:45.537Z,99937.88
2022-11-29T22:51:15.530Z,99938.19
2022-11-29T22:53:47.888Z,99938.53
2022-11-29T22:56:15.150Z,99930.59
2022-11-29T22:58:42.217Z,99938.84
2022-11-29T23:01:11.247Z,99943.47
2022-11-29T23:03:40.452Z,99930.66
2022-11-29T23:06:10.466Z,99920.34
2022-11-29T23:08:39.573Z,99937.84
2022-11-29T23:11:13.027Z,99936.19
2022-11-29T23:13:44.677Z,99933.22
2022-11-29T23:16:17.527Z,99928.28
2022-11-29T23:18:48.548Z,99915.72
2022-11-29T23:21:32.338Z,99920.38
2022-11-29T23:24:01.258Z,99925.09
2022-11-29T23:26:39.221Z,99934.16
2022-11-29T23:29:08.609Z,99936.34
2022-11-29T23:31:35.661Z,99932.25
2022-11-29T23:34:03.697Z,99929.53
2022-11-29T23:36:30.824Z,99935.53
2022-11-29T23:38:57.893Z,99919.41
2022-11-29T23:41:24.868Z,99921.63
2022-11-29T23:43:51.715Z,99916.16
2022-11-29T23:46:21.178Z,99914.84
2022-11-29T23:48:48.568Z,99915.16
2022-11-29T23:51:16.569Z,99926.81
2022-11-29T23:53:43.888Z,99925.94
2022-11-29T23:56:16.516Z,99929.22
2022-11-29T23:58:47.422Z,99924.09
